createdAt,value
2023-03-26T00:00:16.851Z,83.41
2023-03-26T00:02:47.228Z,83.47
2023-03-26T00:05:17.622Z,83.47
2023-03-26T00:07:48.647Z,83.79
2023-03-26T00:10:19.074Z,83.69
2023-03-26T00:12:49.722Z,83.82
2023-03-26T00:15:20.525Z,83.67
2023-03-26T00:17:51.830Z,83.70
2023-03-26T00:20:22.645Z,83.66
2023-03-26T00:22:53.548Z,83.61
2023-03-26T00:25:24.688Z,83.79
2023-03-26T00:27:55.671Z,83.83
2023-03-26T00:30:26.613Z,83.75
2023-03-26T00:32:57.318Z,83.62
2023-03-26T00:35:29.224Z,83.66
2023-03-26T00:37:59.801Z,83.78
2023-03-26T00:40:32.084Z,83.64
2023-03-26T00:43:02.498Z,83.58
2023-03-26T00:45:32.798Z,83.32
2023-03-26T00:48:04.250Z,83.44
2023-03-26T00:50:34.905Z,83.39
2023-03-26T00:53:05.327Z,83.68
2023-03-26T00:55:35.642Z,83.63
2023-03-26T00:58:06.076Z,83.65
2023-03-26T01:00:39.170Z,83.68
2023-03-26T01:05:52.964Z,83.72
2023-03-26T01:08:29.140Z,83.90
2023-03-26T01:11:05.266Z,83.88
2023-03-26T01:13:39.330Z,84.07
2023-03-26T01:16:20.358Z,84.23
2023-03-26T01:18:52.763Z,84.25
2023-03-26T01:21:28.527Z,84.38
2023-03-26T01:24:01.811Z,84.62
2023-03-26T01:26:43.852Z,85.00
2023-03-26T01:29:20.929Z,85.30
2023-03-26T01:32:00.429Z,85.47
2023-03-26T01:34:37.799Z,85.56
2023-03-26T01:37:17.639Z,85.71
2023-03-26T01:39:56.856Z,85.52
2023-03-26T01:42:35.364Z,85.47
2023-03-26T01:45:11.521Z,85.25
2023-03-26T01:47:43.379Z,84.98
2023-03-26T01:50:14.183Z,84.96
2023-03-26T01:52:44.853Z,84.77
2023-03-26T01:55:15.494Z,84.65
2023-03-26T01:57:56.652Z,84.58
2023-03-26T02:00:32.632Z,84.24
2023-03-26T02:03:18.089Z,84.33
2023-03-26T02:05:57.852Z,84.23
2023-03-26T02:08:36.287Z,84.23
2023-03-26T02:11:13.153Z,84.40
2023-03-26T02:13:46.657Z,84.21
2023-03-26T02:16:20.678Z,84.27
2023-03-26T02:18:55.735Z,84.34
2023-03-26T02:21:27.897Z,84.34
2023-03-26T02:24:03.324Z,84.12
2023-03-26T02:26:37.559Z,84.06
2023-03-26T02:29:08.098Z,84.00
2023-03-26T02:31:38.758Z,83.96
2023-03-26T02:34:09.125Z,83.67
2023-03-26T02:36:39.575Z,83.64
2023-03-26T02:39:10.766Z,83.62
2023-03-26T02:41:41.477Z,83.51
2023-03-26T02:44:12.120Z,83.39
2023-03-26T02:46:42.436Z,83.30
2023-03-26T02:49:13.024Z,83.45
2023-03-26T02:51:43.601Z,83.44
2023-03-26T02:54:16.219Z,83.50
2023-03-26T02:56:47.000Z,83.58
2023-03-26T02:59:17.354Z,83.70
2023-03-26T03:01:47.646Z,83.90
2023-03-26T03:04:18.405Z,83.70
2023-03-26T03:06:52.879Z,83.77
2023-03-26T03:09:23.303Z,83.58
2023-03-26T03:11:53.886Z,83.58
2023-03-26T03:14:24.170Z,83.56
2023-03-26T03:16:54.847Z,83.59
2023-03-26T03:19:25.198Z,83.67
2023-03-26T03:21:55.508Z,83.77
2023-03-26T03:24:27.093Z,83.71
2023-03-26T03:26:58.010Z,83.65
2023-03-26T03:29:29.243Z,83.72
2023-03-26T03:32:00.138Z,83.56
2023-03-26T03:34:30.523Z,83.57
2023-03-26T03:37:00.901Z,83.43
2023-03-26T03:39:31.617Z,83.36
2023-03-26T03:42:01.883Z,83.39
2023-03-26T03:44:32.262Z,83.35
2023-03-26T03:47:02.564Z,83.36
2023-03-26T03:49:33.309Z,83.32
2023-03-26T03:52:03.621Z,83.38
2023-03-26T03:54:33.958Z,83.51
2023-03-26T03:57:04.404Z,83.45
2023-03-26T03:59:34.817Z,83.57
2023-03-26T04:02:05.304Z,83.76
2023-03-26T04:04:37.604Z,83.77
2023-03-26T04:07:08.098Z,83.85
2023-03-26T04:09:38.408Z,83.97
2023-03-26T04:12:09.335Z,84.02
2023-03-26T04:14:39.601Z,83.87
2023-03-26T04:17:10.153Z,84.08
2023-03-26T04:19:40.444Z,83.74
2023-03-26T04:22:11.947Z,83.59
2023-03-26T04:24:42.295Z,83.21
2023-03-26T04:27:17.031Z,83.19
2023-03-26T04:29:50.625Z,83.20
2023-03-26T04:32:26.517Z,82.83
2023-03-26T04:35:00.138Z,82.85
2023-03-26T04:37:39.442Z,82.79
2023-03-26T04:40:14.643Z,82.43
2023-03-26T04:42:46.160Z,82.21
2023-03-26T04:45:22.456Z,82.11
2023-03-26T04:47:53.215Z,82.03
2023-03-26T04:50:23.609Z,82.11
2023-03-26T04:52:57.160Z,82.27
2023-03-26T04:55:33.112Z,82.34
2023-03-26T04:58:05.394Z,82.58
2023-03-26T05:00:36.258Z,82.52
2023-03-26T05:03:09.742Z,82.41
2023-03-26T05:05:41.036Z,82.44
2023-03-26T05:08:11.534Z,82.15
2023-03-26T05:10:41.822Z,82.20
2023-03-26T05:13:12.375Z,82.28
2023-03-26T05:15:42.689Z,82.38
2023-03-26T05:18:12.976Z,82.18
2023-03-26T05:20:43.777Z,82.29
2023-03-26T05:23:14.160Z,81.99
2023-03-26T05:25:44.500Z,81.93
2023-03-26T05:28:15.430Z,81.75
2023-03-26T05:30:46.012Z,81.53
2023-03-26T05:33:16.365Z,81.34
2023-03-26T05:35:49.362Z,81.20
2023-03-26T05:38:19.665Z,81.29
2023-03-26T05:40:49.941Z,81.50
2023-03-26T05:43:20.249Z,81.38
2023-03-26T05:45:52.015Z,81.45
2023-03-26T05:48:22.725Z,81.41
2023-03-26T05:50:54.574Z,81.26
2023-03-26T05:53:27.398Z,81.27
2023-03-26T05:55:58.708Z,81.54
2023-03-26T05:58:30.413Z,81.59
2023-03-26T06:01:05.368Z,81.69
2023-03-26T06:03:36.880Z,81.74
2023-03-26T06:06:09.829Z,81.70
2023-03-26T06:08:41.190Z,81.76
2023-03-26T06:11:13.657Z,81.71
2023-03-26T06:13:45.334Z,81.75
2023-03-26T06:16:21.091Z,81.64
2023-03-26T06:18:58.381Z,81.67
2023-03-26T06:21:29.713Z,81.59
2023-03-26T06:24:00.374Z,81.50
2023-03-26T06:26:30.914Z,81.54
2023-03-26T06:29:01.242Z,81.76
2023-03-26T06:31:31.593Z,81.73
2023-03-26T06:34:02.227Z,81.85
2023-03-26T06:36:32.517Z,81.92
2023-03-26T06:39:07.796Z,81.72
2023-03-26T06:41:38.631Z,81.84
2023-03-26T06:44:08.900Z,81.65
2023-03-26T06:46:39.475Z,81.60
2023-03-26T06:49:09.855Z,81.58
2023-03-26T06:51:41.152Z,81.69
2023-03-26T06:54:11.597Z,81.57
2023-03-26T06:56:41.941Z,81.73
2023-03-26T06:59:12.264Z,81.42
2023-03-26T07:01:42.514Z,81.09
2023-03-26T07:04:13.171Z,81.10
2023-03-26T07:06:43.521Z,80.78
2023-03-26T07:09:13.959Z,80.60
2023-03-26T07:11:44.305Z,80.60
2023-03-26T07:14:15.016Z,80.45
2023-03-26T07:16:45.893Z,80.27
2023-03-26T07:19:16.182Z,80.09
2023-03-26T07:21:47.706Z,79.64
2023-03-26T07:24:20.262Z,79.42
2023-03-26T07:26:57.251Z,79.32
2023-03-26T07:29:35.795Z,79.24
2023-03-26T07:32:18.505Z,79.34
2023-03-26T07:34:57.567Z,79.43
2023-03-26T07:37:39.250Z,79.31
2023-03-26T07:40:25.465Z,78.80
2023-03-26T07:43:10.508Z,78.92
2023-03-26T07:45:42.722Z,78.42
2023-03-26T07:48:18.962Z,78.12
2023-03-26T07:50:53.072Z,78.18
2023-03-26T07:53:24.888Z,78.05
2023-03-26T07:56:04.163Z,77.99
2023-03-26T07:58:56.795Z,78.31
2023-03-26T08:01:41.243Z,78.15
2023-03-26T08:04:38.247Z,78.31
2023-03-26T08:07:29.599Z,78.23
2023-03-26T08:10:09.328Z,78.02
2023-03-26T08:12:48.123Z,77.97
2023-03-26T08:15:29.119Z,77.66
2023-03-26T08:18:07.822Z,77.80
2023-03-26T08:20:43.633Z,77.86
2023-03-26T08:23:25.207Z,77.17
2023-03-26T08:26:04.771Z,76.93
2023-03-26T08:28:48.600Z,76.90
2023-03-26T08:31:25.016Z,77.23
2023-03-26T08:33:55.533Z,77.05
2023-03-26T08:36:25.793Z,76.86
2023-03-26T08:38:57.593Z,76.75
2023-03-26T08:42:03.034Z,76.26
2023-03-26T08:45:27.933Z,76.09
2023-03-26T08:48:19.951Z,75.49
2023-03-26T08:51:22.981Z,74.96
2023-03-26T08:54:17.988Z,75.25
2023-03-26T08:56:58.769Z,74.64
2023-03-26T08:59:56.942Z,74.54
2023-03-26T09:02:55.415Z,74.24
2023-03-26T09:06:01.274Z,73.96
2023-03-26T09:09:19.019Z,73.45
2023-03-26T09:12:33.325Z,73.21
2023-03-26T09:15:29.055Z,72.60
2023-03-26T09:18:44.774Z,72.58
2023-03-26T09:21:40.285Z,73.23
2023-03-26T09:24:52.765Z,73.03
2023-03-26T09:27:41.824Z,73.03
2023-03-26T09:31:01.692Z,72.39
2023-03-26T09:33:55.917Z,72.46
2023-03-26T09:36:37.782Z,72.37
2023-03-26T09:39:17.435Z,71.87
2023-03-26T09:42:08.436Z,71.47
2023-03-26T09:45:17.402Z,71.99
2023-03-26T09:48:15.766Z,71.36
2023-03-26T09:50:57.703Z,72.11
2023-03-26T09:53:55.507Z,72.19
2023-03-26T09:56:30.805Z,71.93
2023-03-26T09:59:31.612Z,71.72
2023-03-26T10:02:18.250Z,72.04
2023-03-26T10:05:06.720Z,72.53
2023-03-26T10:07:55.929Z,72.27
2023-03-26T10:10:36.703Z,72.42
2023-03-26T10:13:15.684Z,72.83
2023-03-26T10:15:59.268Z,73.12
2023-03-26T10:18:42.210Z,73.18
2023-03-26T10:21:20.110Z,73.10
2023-03-26T10:24:12.084Z,73.25
2023-03-26T10:27:08.666Z,73.26
2023-03-26T10:30:22.865Z,73.53
2023-03-26T10:33:05.866Z,72.96
2023-03-26T10:35:48.157Z,73.05
2023-03-26T10:38:33.501Z,72.94
2023-03-26T10:41:14.691Z,72.82
2023-03-26T10:44:08.695Z,73.35
2023-03-26T10:46:52.163Z,73.01
2023-03-26T10:49:49.093Z,72.36
2023-03-26T10:52:22.880Z,72.49
2023-03-26T10:54:57.852Z,72.78
2023-03-26T10:57:44.212Z,72.76
2023-03-26T11:00:25.148Z,72.29
2023-03-26T11:03:20.888Z,72.15
2023-03-26T11:05:59.752Z,71.89
2023-03-26T11:08:39.661Z,72.01
2023-03-26T11:11:21.544Z,71.52
2023-03-26T11:14:01.409Z,71.12
2023-03-26T11:16:49.920Z,71.58
2023-03-26T11:19:28.693Z,71.50
2023-03-26T11:22:07.945Z,70.43
2023-03-26T11:24:58.021Z,70.20
2023-03-26T11:27:45.718Z,70.04
2023-03-26T11:30:20.316Z,69.57
2023-03-26T11:32:53.912Z,69.76
2023-03-26T11:35:39.911Z,69.92
2023-03-26T11:38:20.875Z,69.96
2023-03-26T11:40:54.081Z,69.93
2023-03-26T11:43:31.179Z,69.86
2023-03-26T11:46:02.987Z,69.51
2023-03-26T11:48:38.021Z,68.90
2023-03-26T11:51:12.776Z,69.00
2023-03-26T11:53:47.037Z,69.73
2023-03-26T11:56:27.099Z,69.16
2023-03-26T11:59:02.425Z,68.51
2023-03-26T12:01:50.687Z,68.39
2023-03-26T12:04:29.237Z,68.27
2023-03-26T12:07:08.585Z,68.32
2023-03-26T12:09:50.025Z,68.36
2023-03-26T12:12:20.937Z,68.12
2023-03-26T12:14:51.689Z,67.77
2023-03-26T12:17:33.158Z,68.05
2023-03-26T12:20:23.493Z,67.65
2023-03-26T12:22:58.919Z,67.48
2023-03-26T12:25:31.273Z,67.48
2023-03-26T12:28:04.037Z,67.56
2023-03-26T12:30:37.298Z,67.48
2023-03-26T12:33:16.615Z,67.25
2023-03-26T12:35:47.086Z,67.13
2023-03-26T12:38:22.957Z,67.02
2023-03-26T12:41:07.889Z,67.10
2023-03-26T12:44:46.329Z,66.97
2023-03-26T12:47:55.305Z,66.60
2023-03-26T12:49:26.699Z,66.55
2023-03-26T12:52:03.930Z,66.20
2023-03-26T12:54:46.024Z,65.96
2023-03-26T12:57:22.239Z,66.02
2023-03-26T13:00:14.226Z,65.27
2023-03-26T13:03:09.343Z,65.54
2023-03-26T13:05:50.685Z,65.55
2023-03-26T13:08:47.218Z,65.55
2023-03-26T13:11:28.307Z,65.21
2023-03-26T13:14:26.389Z,65.57
2023-03-26T13:17:01.528Z,65.68
2023-03-26T13:19:41.493Z,66.11
2023-03-26T13:22:25.284Z,65.75
2023-03-26T13:25:04.043Z,65.79
2023-03-26T13:27:49.153Z,66.04
2023-03-26T13:30:31.417Z,65.57
2023-03-26T13:33:15.762Z,66.20
2023-03-26T13:36:06.035Z,66.19
2023-03-26T13:38:58.900Z,66.00
2023-03-26T13:41:41.657Z,66.69
2023-03-26T13:44:23.127Z,65.71
2023-03-26T13:46:59.390Z,65.61
2023-03-26T13:49:37.412Z,65.34
2023-03-26T13:52:12.731Z,65.60
2023-03-26T13:54:48.908Z,65.43
2023-03-26T13:57:25.866Z,65.33
2023-03-26T14:00:01.427Z,65.72
2023-03-26T14:02:37.289Z,65.29
2023-03-26T14:05:16.610Z,65.23
2023-03-26T14:07:52.326Z,65.45
2023-03-26T14:10:27.255Z,65.21
2023-03-26T14:13:01.280Z,65.26
2023-03-26T14:15:37.443Z,64.90
2023-03-26T14:18:21.502Z,65.24
2023-03-26T14:21:30.128Z,65.53
2023-03-26T14:24:21.329Z,66.20
2023-03-26T14:27:06.062Z,66.01
2023-03-26T14:29:56.634Z,65.77
2023-03-26T14:32:51.843Z,66.10
2023-03-26T14:35:37.713Z,65.67
2023-03-26T14:38:33.455Z,65.59
2023-03-26T14:41:20.828Z,65.70
2023-03-26T14:44:06.730Z,65.59
2023-03-26T14:46:53.418Z,65.13
2023-03-26T14:49:43.550Z,65.40
2023-03-26T14:52:18.555Z,65.99
2023-03-26T14:54:53.907Z,65.69
2023-03-26T14:57:46.122Z,65.57
2023-03-26T15:01:04.261Z,65.58
2023-03-26T15:04:10.041Z,65.26
2023-03-26T15:07:25.585Z,65.49
2023-03-26T15:10:28.206Z,66.13
2023-03-26T15:13:11.687Z,66.38
2023-03-26T15:16:17.828Z,66.05
2023-03-26T15:19:17.645Z,66.19
2023-03-26T15:22:19.786Z,66.18
2023-03-26T15:25:23.098Z,66.17
2023-03-26T15:28:10.542Z,66.32
2023-03-26T15:31:13.863Z,66.17
2023-03-26T15:34:19.988Z,66.49
2023-03-26T15:37:29.718Z,66.98
2023-03-26T15:40:27.872Z,66.98
2023-03-26T15:43:07.625Z,67.27
2023-03-26T15:45:40.728Z,66.82
2023-03-26T15:48:35.360Z,67.61
2023-03-26T15:51:23.502Z,67.93
2023-03-26T15:54:01.146Z,67.43
2023-03-26T15:56:58.945Z,67.70
2023-03-26T15:59:41.667Z,67.47
2023-03-26T16:02:23.481Z,67.19
2023-03-26T16:04:57.419Z,67.20
2023-03-26T16:07:41.356Z,67.21
2023-03-26T16:10:29.107Z,67.39
2023-03-26T16:13:25.216Z,67.44
2023-03-26T16:15:58.466Z,66.94
2023-03-26T16:18:35.795Z,67.23
2023-03-26T16:21:34.855Z,67.33
2023-03-26T16:24:34.654Z,66.87
2023-03-26T16:27:23.352Z,67.80
2023-03-26T16:30:25.673Z,66.97
2023-03-26T16:32:58.862Z,67.37
2023-03-26T16:35:51.228Z,67.86
2023-03-26T16:38:27.261Z,67.16
2023-03-26T16:41:08.213Z,67.07
2023-03-26T16:43:52.093Z,67.46
2023-03-26T16:46:37.409Z,67.21
2023-03-26T16:49:17.422Z,67.11
2023-03-26T16:52:03.109Z,67.16
2023-03-26T16:54:44.107Z,67.01
2023-03-26T16:57:25.981Z,66.89
2023-03-26T17:00:30.030Z,67.43
2023-03-26T17:03:13.002Z,67.80
2023-03-26T17:06:02.087Z,67.88
2023-03-26T17:08:43.235Z,68.69
2023-03-26T17:11:23.359Z,68.10
2023-03-26T17:14:03.685Z,68.49
2023-03-26T17:16:41.362Z,68.63
2023-03-26T17:19:25.996Z,68.31
2023-03-26T17:22:02.270Z,68.37
2023-03-26T17:24:41.128Z,68.24
2023-03-26T17:27:26.380Z,67.97
2023-03-26T17:30:06.313Z,67.95
2023-03-26T17:32:59.812Z,67.38
2023-03-26T17:35:43.556Z,67.29
2023-03-26T17:38:45.548Z,66.68
2023-03-26T17:41:36.529Z,66.64
2023-03-26T17:44:45.575Z,67.24
2023-03-26T17:47:24.602Z,67.19
2023-03-26T17:50:00.811Z,67.63
2023-03-26T17:52:42.619Z,67.89
2023-03-26T17:55:20.792Z,67.76
2023-03-26T17:57:54.344Z,67.40
2023-03-26T18:00:27.987Z,67.94
2023-03-26T18:03:01.727Z,68.24
2023-03-26T18:05:34.132Z,68.51
2023-03-26T18:08:34.153Z,68.50
2023-03-26T18:11:19.717Z,68.36
2023-03-26T18:14:08.697Z,68.38
2023-03-26T18:16:42.796Z,68.91
2023-03-26T18:19:19.410Z,68.95
2023-03-26T18:21:52.782Z,68.64
2023-03-26T18:24:26.687Z,68.84
2023-03-26T18:27:02.475Z,68.99
2023-03-26T18:29:35.240Z,69.66
2023-03-26T18:32:22.246Z,69.88
2023-03-26T18:34:58.162Z,69.69
2023-03-26T18:37:31.684Z,69.82
2023-03-26T18:40:11.616Z,70.06
2023-03-26T18:42:45.170Z,69.59
2023-03-26T18:45:27.577Z,69.16
2023-03-26T18:48:00.276Z,69.76
2023-03-26T18:50:36.560Z,69.52
2023-03-26T18:53:11.200Z,69.55
2023-03-26T18:55:41.853Z,68.49
2023-03-26T18:58:26.705Z,68.43
2023-03-26T19:01:00.743Z,68.80
2023-03-26T19:03:35.637Z,68.08
2023-03-26T19:06:11.017Z,67.99
2023-03-26T19:08:43.748Z,67.77
2023-03-26T19:11:17.195Z,68.23
2023-03-26T19:13:59.484Z,68.14
2023-03-26T19:16:33.984Z,68.13
2023-03-26T19:19:07.397Z,67.88
2023-03-26T19:21:38.517Z,67.92
2023-03-26T19:24:10.315Z,67.76
2023-03-26T19:26:40.680Z,66.93
2023-03-26T19:29:15.945Z,66.69
2023-03-26T19:31:50.979Z,66.71
2023-03-26T19:34:31.962Z,67.25
2023-03-26T19:37:04.250Z,67.68
2023-03-26T19:39:43.764Z,66.99
2023-03-26T19:42:18.363Z,66.29
2023-03-26T19:44:48.940Z,66.41
2023-03-26T19:47:31.964Z,66.94
2023-03-26T19:50:25.938Z,66.15
2023-03-26T19:53:17.873Z,66.31
2023-03-26T19:55:58.733Z,66.54
2023-03-26T19:58:29.887Z,66.51
2023-03-26T20:01:00.512Z,66.47
2023-03-26T20:03:38.052Z,66.59
2023-03-26T20:06:11.363Z,67.09
2023-03-26T20:08:42.710Z,67.14
2023-03-26T20:11:19.612Z,67.46
2023-03-26T20:13:51.030Z,67.64
2023-03-26T20:16:26.887Z,68.33
2023-03-26T20:18:58.343Z,68.47
2023-03-26T20:21:29.942Z,69.29
2023-03-26T20:24:01.004Z,69.10
2023-03-26T20:26:31.357Z,69.06
2023-03-26T20:29:03.058Z,68.99
2023-03-26T20:31:34.829Z,69.83
2023-03-26T20:34:07.570Z,70.23
2023-03-26T20:36:38.721Z,70.13
2023-03-26T20:39:10.198Z,70.78
2023-03-26T20:41:44.924Z,70.61
2023-03-26T20:44:17.913Z,70.44
2023-03-26T20:46:49.709Z,70.27
2023-03-26T20:49:22.066Z,70.31
2023-03-26T20:51:52.667Z,70.59
2023-03-26T20:54:26.789Z,70.31
2023-03-26T20:56:58.089Z,70.11
2023-03-26T20:59:30.867Z,70.59
2023-03-26T21:02:01.310Z,70.81
2023-03-26T21:04:32.110Z,71.04
2023-03-26T21:07:15.062Z,70.85
2023-03-26T21:09:49.321Z,71.47
2023-03-26T21:12:29.451Z,71.34
2023-03-26T21:17:33.123Z,71.51
2023-03-26T21:20:11.918Z,71.79
2023-03-26T21:22:48.581Z,71.73
2023-03-26T21:25:33.440Z,71.85
2023-03-26T21:28:16.301Z,71.89
2023-03-26T21:30:48.331Z,72.12
2023-03-26T21:33:19.264Z,72.14
2023-03-26T21:35:52.019Z,72.26
2023-03-26T21:38:24.885Z,72.65
2023-03-26T21:40:58.825Z,72.62
2023-03-26T21:43:30.447Z,72.48
2023-03-26T21:46:01.705Z,72.49
2023-03-26T21:48:33.203Z,72.46
2023-03-26T21:51:06.512Z,72.42
2023-03-26T21:53:38.189Z,72.04
2023-03-26T21:56:22.012Z,72.11
2023-03-26T21:59:00.124Z,72.35
2023-03-26T22:01:41.235Z,72.29
2023-03-26T22:04:17.867Z,72.61
2023-03-26T22:06:56.783Z,72.34
2023-03-26T22:12:04.406Z,72.27
2023-03-26T22:14:35.353Z,71.83
2023-03-26T22:17:06.214Z,71.82
2023-03-26T22:19:36.889Z,71.68
2023-03-26T22:22:07.186Z,71.80
2023-03-26T22:24:38.363Z,71.93
2023-03-26T22:27:08.764Z,71.99
2023-03-26T22:29:39.063Z,72.48
2023-03-26T22:32:09.924Z,71.93
2023-03-26T22:34:41.361Z,71.58
2023-03-26T22:37:12.026Z,71.46
2023-03-26T22:39:42.993Z,72.15
2023-03-26T22:42:14.007Z,72.37
2023-03-26T22:44:44.644Z,71.63
2023-03-26T22:47:16.910Z,71.53
2023-03-26T22:49:47.217Z,71.56
2023-03-26T22:52:17.490Z,72.14
2023-03-26T22:54:47.805Z,71.99
2023-03-26T22:57:18.203Z,71.63
2023-03-26T22:59:48.559Z,71.50
2023-03-26T23:02:19.018Z,71.31
2023-03-26T23:04:49.400Z,71.10
2023-03-26T23:07:19.770Z,70.63
2023-03-26T23:09:50.383Z,70.93
2023-03-26T23:12:20.669Z,71.52
2023-03-26T23:14:52.763Z,70.97
2023-03-26T23:17:23.930Z,70.96
2023-03-26T23:19:54.614Z,71.09
2023-03-26T23:22:25.535Z,70.98
2023-03-26T23:24:56.197Z,70.67
2023-03-26T23:27:27.420Z,70.12
2023-03-26T23:29:58.075Z,69.52
2023-03-26T23:32:28.969Z,69.44
2023-03-26T23:34:59.501Z,68.96
2023-03-26T23:37:35.017Z,68.82
2023-03-26T23:40:09.876Z,68.15
2023-03-26T23:42:40.359Z,68.15
2023-03-26T23:45:13.019Z,67.15
2023-03-26T23:47:44.501Z,67.30
2023-03-26T23:50:15.094Z,67.83
2023-03-26T23:52:45.738Z,68.04
2023-03-26T23:55:16.340Z,66.80
2023-03-26T23:57:46.957Z,66.98
